Time;durP1;ratioP1;P1;durP2;ratioP2;P2;SDS_P1;SDS_P2;PMS_P1;PMS_P2;Temp;Humidity;BMP_temperature;BMP_pressure;BME280_temperature;BME280_humidity;BME280_pressure;Samples;Min_cycle;Max_cycle;Signal;HPM_P1;HPM_P2
2022/03/08 00:01:52;;;;;;;32.55;18.60;;;-0.80;55.90;;;;;;4935571;28;20042;-64
2022/03/08 00:04:18;;;;;;;33.50;19.67;;;-0.80;55.80;;;;;;4936265;28;20039;-65
2022/03/08 00:06:43;;;;;;;33.72;18.58;;;-0.80;55.80;;;;;;4938980;28;20047;-66
2022/03/08 00:09:09;;;;;;;35.85;19.42;;;-0.80;55.90;;;;;;4938447;28;20032;-66
2022/03/08 00:11:35;;;;;;;32.13;19.00;;;-0.80;55.90;;;;;;4939211;28;20031;-66
2022/03/08 00:14:00;;;;;;;30.30;18.23;;;-0.80;55.90;;;;;;4935316;28;20691;-65
2022/03/08 00:16:26;;;;;;;32.10;18.30;;;-0.80;56.00;;;;;;4936618;28;20507;-66
2022/03/08 00:18:51;;;;;;;32.67;18.95;;;-0.80;56.00;;;;;;4933646;28;20035;-66
2022/03/08 00:21:18;;;;;;;33.55;19.23;;;-0.80;56.00;;;;;;4937857;28;20027;-65
2022/03/08 00:23:43;;;;;;;33.92;19.25;;;-0.90;56.00;;;;;;4935848;28;20032;-66
2022/03/08 00:26:09;;;;;;;33.78;19.48;;;-0.90;56.00;;;;;;4932820;28;20035;-66
2022/03/08 00:28:35;;;;;;;34.92;19.10;;;-0.90;56.00;;;;;;4936018;28;20380;-65
2022/03/08 00:31:01;;;;;;;35.58;18.77;;;-0.90;56.10;;;;;;4935306;28;20526;-66
2022/03/08 00:33:27;;;;;;;38.42;20.00;;;-0.90;56.10;;;;;;4936782;28;20384;-66
2022/03/08 00:35:53;;;;;;;34.40;19.40;;;-1.00;56.10;;;;;;4936196;28;20063;-65
2022/03/08 00:38:19;;;;;;;36.83;20.25;;;-1.00;56.20;;;;;;4918883;28;20127;-63
2022/03/08 00:40:46;;;;;;;35.83;19.02;;;-0.90;56.30;;;;;;4934594;28;20189;-65
2022/03/08 00:43:11;;;;;;;32.33;18.65;;;-1.00;56.30;;;;;;4933309;28;20043;-65
2022/03/08 00:45:37;;;;;;;33.28;18.73;;;-1.00;56.30;;;;;;4934807;28;20041;-65
2022/03/08 00:48:03;;;;;;;32.85;19.30;;;-1.00;56.40;;;;;;4936292;28;20044;-66
2022/03/08 00:50:30;;;;;;;33.00;18.70;;;-1.00;56.30;;;;;;4934312;28;20519;-66
2022/03/08 00:52:57;;;;;;;36.20;19.10;;;-1.00;56.30;;;;;;4935518;28;20038;-66
2022/03/08 00:55:25;;;;;;;34.08;18.73;;;-1.00;56.30;;;;;;4933973;28;20035;-66
2022/03/08 00:57:50;;;;;;;33.83;19.30;;;-1.00;56.30;;;;;;4935227;28;20515;-66
2022/03/08 01:00:18;;;;;;;33.55;18.52;;;-1.00;56.30;;;;;;4933523;28;20123;-65
2022/03/08 01:02:44;;;;;;;32.75;18.45;;;-1.10;56.30;;;;;;4935494;28;20771;-65
2022/03/08 01:05:10;;;;;;;34.42;18.63;;;-1.00;56.40;;;;;;4937593;28;20035;-66
2022/03/08 01:07:36;;;;;;;30.83;17.77;;;-1.10;56.50;;;;;;4933185;28;20074;-66
2022/03/08 01:10:04;;;;;;;32.42;18.55;;;-1.10;56.40;;;;;;4933625;28;20035;-64
2022/03/08 01:12:30;;;;;;;33.38;19.10;;;-1.10;57.10;;;;;;4934165;28;20062;-66
2022/03/08 01:14:55;;;;;;;34.92;18.83;;;-1.20;56.80;;;;;;4934552;28;20444;-65
2022/03/08 01:17:21;;;;;;;34.33;18.90;;;-1.20;56.50;;;;;;4934548;28;20039;-65
2022/03/08 01:19:47;;;;;;;33.65;18.35;;;-1.20;56.50;;;;;;4934964;28;20502;-66
2022/03/08 01:22:12;;;;;;;28.23;15.57;;;-1.20;56.50;;;;;;4933730;28;20526;-66
2022/03/08 01:24:38;;;;;;;32.50;18.38;;;-1.20;56.50;;;;;;4935501;28;20328;-65
2022/03/08 01:27:04;;;;;;;29.48;17.70;;;-1.20;56.50;;;;;;4933927;28;20067;-66
2022/03/08 01:29:30;;;;;;;32.63;17.92;;;-1.20;56.60;;;;;;4932982;28;20438;-66
2022/03/08 01:31:57;;;;;;;31.45;17.63;;;-1.20;56.50;;;;;;4933161;28;20512;-66
2022/03/08 01:34:22;;;;;;;33.75;17.95;;;-1.20;56.60;;;;;;4933682;28;20122;-66
2022/03/08 01:36:48;;;;;;;33.22;18.00;;;-1.20;56.50;;;;;;4933416;28;20036;-65
2022/03/08 01:39:14;;;;;;;32.22;18.17;;;-1.20;56.50;;;;;;4934593;28;20036;-66
2022/03/08 01:41:39;;;;;;;29.30;17.25;;;-1.30;56.50;;;;;;4938881;28;20038;-66
2022/03/08 01:44:08;;;;;;;34.33;17.27;;;-1.30;56.50;;;;;;4937297;28;20058;-66
2022/03/08 01:46:36;;;;;;;28.67;17.13;;;-1.30;56.50;;;;;;4938558;28;20081;-66
2022/03/08 01:49:02;;;;;;;30.95;16.77;;;-1.30;56.50;;;;;;4939153;28;20039;-66
2022/03/08 01:51:28;;;;;;;29.08;17.48;;;-1.30;56.50;;;;;;4938286;28;20055;-66
2022/03/08 01:53:54;;;;;;;30.88;17.10;;;-1.30;56.60;;;;;;4939325;28;20031;-65
2022/03/08 01:56:20;;;;;;;32.75;18.08;;;-1.30;56.60;;;;;;4938770;28;20051;-66
2022/03/08 01:58:45;;;;;;;33.40;18.08;;;-1.30;56.60;;;;;;4938249;28;20035;-65
2022/03/08 02:01:11;;;;;;;29.45;15.95;;;-1.30;56.60;;;;;;4940385;28;20058;-65
2022/03/08 02:03:36;;;;;;;28.95;15.90;;;-1.40;56.60;;;;;;4937544;28;20434;-66
2022/03/08 02:06:03;;;;;;;29.58;16.10;;;-1.40;56.50;;;;;;4938432;28;20035;-66
2022/03/08 02:08:28;;;;;;;31.50;17.45;;;-1.40;56.60;;;;;;4936167;28;20475;-66
2022/03/08 02:10:54;;;;;;;34.78;17.83;;;-1.40;56.50;;;;;;4936428;28;20130;-66
2022/03/08 02:13:21;;;;;;;28.85;16.67;;;-1.40;56.50;;;;;;4938331;28;20051;-66
2022/03/08 02:15:50;;;;;;;31.58;17.48;;;-1.40;56.50;;;;;;4936805;28;20036;-66
2022/03/08 02:18:16;;;;;;;30.67;17.08;;;-1.40;56.70;;;;;;4937067;28;20126;-64
2022/03/08 02:20:42;;;;;;;27.77;16.70;;;-1.40;56.70;;;;;;4940848;28;20402;-66
2022/03/08 02:23:08;;;;;;;29.85;16.58;;;-1.50;56.70;;;;;;4938259;28;20032;-66
2022/03/08 02:25:34;;;;;;;28.55;16.00;;;-1.40;56.70;;;;;;4936338;28;20075;-66
2022/03/08 02:27:59;;;;;;;31.27;17.17;;;-1.50;56.60;;;;;;4937315;28;20126;-66
2022/03/08 02:30:26;;;;;;;28.73;16.95;;;-1.50;56.60;;;;;;4936227;28;20468;-66
2022/03/08 02:32:53;;;;;;;30.80;16.90;;;-1.50;56.60;;;;;;4936984;28;20045;-66
2022/03/08 02:35:24;;;;;;;31.45;17.85;;;-1.50;56.70;;;;;;4934907;28;20091;-66
2022/03/08 02:37:53;;;;;;;29.48;16.85;;;-1.50;56.80;;;;;;4939104;28;20115;-66
2022/03/08 02:40:23;;;;;;;28.60;16.20;;;-1.50;56.80;;;;;;4937057;28;20062;-66
2022/03/08 02:42:50;;;;;;;31.45;17.27;;;-1.60;56.80;;;;;;4935880;28;20037;-66
2022/03/08 02:45:16;;;;;;;27.50;16.10;;;-1.60;56.80;;;;;;4935279;28;20050;-66
2022/03/08 02:47:42;;;;;;;30.25;16.95;;;-1.60;56.80;;;;;;4938765;28;20444;-66
2022/03/08 02:50:10;;;;;;;30.75;16.75;;;-1.60;56.90;;;;;;4936905;28;20070;-66
2022/03/08 02:52:36;;;;;;;28.60;16.52;;;-1.60;57.00;;;;;;4937058;28;20119;-66
2022/03/08 02:55:03;;;;;;;27.40;16.00;;;-1.70;57.00;;;;;;4935865;28;20066;-66
2022/03/08 02:57:29;;;;;;;29.67;17.00;;;-1.70;57.10;;;;;;4935528;28;20375;-65
2022/03/08 02:59:55;;;;;;;30.25;16.75;;;-1.70;57.20;;;;;;4935085;28;20067;-65
2022/03/08 03:02:20;;;;;;;29.98;16.98;;;-1.70;57.20;;;;;;4940591;28;20550;-65
2022/03/08 03:04:46;;;;;;;32.15;17.83;;;-1.70;57.30;;;;;;4937759;28;20042;-66
2022/03/08 03:07:13;;;;;;;29.73;16.83;;;-1.70;57.30;;;;;;4939930;28;20066;-65
2022/03/08 03:09:39;;;;;;;33.10;16.75;;;-1.70;58.00;;;;;;4938611;28;20031;-66
2022/03/08 03:12:05;;;;;;;31.67;16.77;;;-1.80;57.40;;;;;;4936714;28;20053;-66
2022/03/08 03:14:31;;;;;;;29.27;16.85;;;-1.80;57.40;;;;;;4936928;28;20611;-65
2022/03/08 03:16:56;;;;;;;29.10;17.30;;;-1.80;57.30;;;;;;4936535;28;20044;-65
2022/03/08 03:19:22;;;;;;;29.25;16.80;;;-1.80;57.30;;;;;;4935229;28;20041;-66
2022/03/08 03:21:48;;;;;;;31.63;17.65;;;-1.90;57.30;;;;;;4937306;28;20090;-66
2022/03/08 03:24:13;;;;;;;31.25;16.80;;;-1.90;57.30;;;;;;4936718;28;20086;-66
2022/03/08 03:26:39;;;;;;;30.80;16.83;;;-2.00;57.40;;;;;;4937707;28;20039;-66
2022/03/08 03:29:05;;;;;;;33.33;17.88;;;-2.10;57.50;;;;;;4938027;28;20035;-64
2022/03/08 03:31:30;;;;;;;32.75;17.88;;;-2.10;57.60;;;;;;4934405;28;20047;-65
2022/03/08 03:33:56;;;;;;;27.75;15.75;;;-2.20;57.60;;;;;;4934776;28;20039;-65
2022/03/08 03:36:22;;;;;;;29.55;16.55;;;-2.30;57.60;;;;;;4937314;28;20487;-66
2022/03/08 03:38:47;;;;;;;27.23;15.88;;;-2.30;57.70;;;;;;4934983;28;20656;-65
2022/03/08 03:41:13;;;;;;;27.35;15.68;;;-2.40;57.70;;;;;;4937340;28;20103;-65
2022/03/08 03:43:39;;;;;;;27.30;15.40;;;-2.40;57.70;;;;;;4938157;28;20073;-66
2022/03/08 03:46:05;;;;;;;28.23;15.82;;;-2.40;57.80;;;;;;4936082;28;20509;-66
2022/03/08 03:48:32;;;;;;;28.63;15.10;;;-2.40;57.80;;;;;;4933920;28;20039;-65
2022/03/08 03:50:57;;;;;;;30.67;16.40;;;-2.40;57.80;;;;;;4937060;28;20039;-65
2022/03/08 03:53:23;;;;;;;30.83;16.17;;;-2.50;57.80;;;;;;4936482;28;20066;-65
2022/03/08 03:55:48;;;;;;;30.95;16.67;;;-2.50;57.90;;;;;;4934857;28;20090;-66
2022/03/08 03:58:14;;;;;;;32.83;16.83;;;-2.50;57.90;;;;;;4936297;28;21412;-65
2022/03/08 04:00:40;;;;;;;30.75;15.68;;;-2.50;58.00;;;;;;4934875;28;20070;-66
2022/03/08 04:03:05;;;;;;;26.95;15.60;;;-2.50;58.00;;;;;;4935152;28;20519;-64
2022/03/08 04:05:31;;;;;;;27.15;16.02;;;-2.60;57.90;;;;;;4935595;28;20032;-65
2022/03/08 04:07:57;;;;;;;27.23;15.35;;;-2.60;57.90;;;;;;4936914;28;20035;-65
2022/03/08 04:10:22;;;;;;;26.27;14.73;;;-2.60;58.00;;;;;;4935485;28;20051;-65
2022/03/08 04:12:48;;;;;;;30.52;16.65;;;-2.70;58.00;;;;;;4934167;28;20039;-66
2022/03/08 04:15:13;;;;;;;28.98;15.18;;;-2.70;58.10;;;;;;4940827;28;20082;-66
2022/03/08 04:17:40;;;;;;;26.45;14.60;;;-2.70;58.20;;;;;;4934546;28;20028;-66
2022/03/08 04:20:07;;;;;;;27.88;14.82;;;-2.70;58.30;;;;;;4935599;28;20031;-65
2022/03/08 04:22:33;;;;;;;26.13;14.15;;;-2.70;58.40;;;;;;4935125;28;20089;-65
2022/03/08 04:24:59;;;;;;;22.40;13.45;;;-2.70;58.50;;;;;;4936611;28;20123;-65
2022/03/08 04:27:25;;;;;;;25.48;13.98;;;-2.70;58.40;;;;;;4934132;28;20027;-65
2022/03/08 04:29:50;;;;;;;24.65;13.85;;;-2.70;58.40;;;;;;4933159;28;20063;-63
2022/03/08 04:32:16;;;;;;;27.33;14.95;;;-2.70;58.30;;;;;;4935126;28;20047;-65
2022/03/08 04:34:42;;;;;;;25.10;13.90;;;-2.70;58.30;;;;;;4935636;28;20050;-65
2022/03/08 04:37:07;;;;;;;29.13;15.80;;;-2.70;58.40;;;;;;4934460;28;20486;-66
2022/03/08 04:39:34;;;;;;;25.88;14.73;;;-2.70;58.50;;;;;;4934925;28;20039;-65
2022/03/08 04:42:00;;;;;;;30.67;16.08;;;-2.70;58.50;;;;;;4937068;28;20046;-65
2022/03/08 04:44:25;;;;;;;26.25;14.60;;;-2.70;58.50;;;;;;4934309;28;20035;-66
2022/03/08 04:46:51;;;;;;;27.13;15.65;;;-2.70;58.50;;;;;;4939225;28;20439;-66
2022/03/08 04:49:17;;;;;;;29.65;14.80;;;-2.70;58.60;;;;;;4937382;28;20416;-66
2022/03/08 04:51:42;;;;;;;28.52;15.63;;;-2.70;58.60;;;;;;4939201;28;20532;-66
2022/03/08 04:54:08;;;;;;;28.02;15.25;;;-2.70;58.60;;;;;;4939447;28;20031;-66
2022/03/08 04:56:34;;;;;;;26.85;15.38;;;-2.70;58.60;;;;;;4939136;28;20041;-66
2022/03/08 04:59:00;;;;;;;26.58;15.20;;;-2.70;58.60;;;;;;4936846;28;20102;-65
2022/03/08 05:01:25;;;;;;;27.05;14.77;;;-2.70;58.60;;;;;;4938454;28;20578;-67
2022/03/08 05:03:51;;;;;;;28.95;15.70;;;-2.70;58.60;;;;;;4938356;28;20174;-65
2022/03/08 05:06:18;;;;;;;25.33;14.90;;;-2.70;58.70;;;;;;4938023;28;20090;-65
2022/03/08 05:08:44;;;;;;;30.08;14.85;;;-2.60;58.80;;;;;;4937989;28;20839;-66
2022/03/08 05:11:10;;;;;;;26.13;14.05;;;-2.60;58.80;;;;;;4939591;28;20067;-65
2022/03/08 05:13:37;;;;;;;25.08;14.40;;;-2.60;58.80;;;;;;4938246;28;20123;-65
2022/03/08 05:16:03;;;;;;;27.25;15.20;;;-2.60;58.80;;;;;;4937543;28;20283;-66
2022/03/08 05:18:29;;;;;;;25.33;14.52;;;-2.60;58.90;;;;;;4937846;28;20047;-66
2022/03/08 05:20:55;;;;;;;24.70;13.75;;;-2.60;58.90;;;;;;4939054;28;20032;-66
2022/03/08 05:23:20;;;;;;;27.70;14.95;;;-2.60;58.90;;;;;;4939235;28;20047;-66
2022/03/08 05:25:46;;;;;;;25.63;14.68;;;-2.60;58.90;;;;;;4939005;28;20067;-66
2022/03/08 05:28:12;;;;;;;25.45;14.50;;;-2.60;58.90;;;;;;4939781;28;20050;-62
2022/03/08 05:30:38;;;;;;;26.85;14.95;;;-2.60;58.90;;;;;;4938875;28;20036;-65
2022/03/08 05:33:03;;;;;;;24.00;13.57;;;-2.60;58.90;;;;;;4937847;28;20039;-65
2022/03/08 05:35:29;;;;;;;22.48;13.30;;;-2.60;58.90;;;;;;4933784;28;20122;-66
2022/03/08 05:37:55;;;;;;;27.10;14.57;;;-2.60;58.90;;;;;;4940977;28;20034;-65
2022/03/08 05:40:20;;;;;;;29.25;14.32;;;-2.60;58.90;;;;;;4939273;28;20399;-66
2022/03/08 05:42:46;;;;;;;23.33;13.63;;;-2.50;59.00;;;;;;4935927;28;20036;-66
2022/03/08 05:45:12;;;;;;;21.63;13.35;;;-2.60;59.00;;;;;;4937096;28;20031;-65
2022/03/08 05:47:39;;;;;;;25.98;13.73;;;-2.60;58.90;;;;;;4936977;28;20043;-66
2022/03/08 05:50:06;;;;;;;23.75;13.60;;;-2.60;59.00;;;;;;4939353;28;20035;-65
2022/03/08 05:52:32;;;;;;;22.73;13.63;;;-2.60;58.90;;;;;;4937398;28;20055;-66
2022/03/08 05:54:58;;;;;;;24.70;13.98;;;-2.60;59.00;;;;;;4938419;28;20038;-65
2022/03/08 05:57:23;;;;;;;21.95;12.95;;;-2.50;59.00;;;;;;4938862;28;20044;-65
2022/03/08 05:59:49;;;;;;;22.65;13.80;;;-2.60;59.00;;;;;;4937697;28;20043;-65
2022/03/08 06:02:19;;;;;;;24.10;13.50;;;-2.60;59.00;;;;;;4938451;28;20035;-65
2022/03/08 06:04:45;;;;;;;22.98;13.43;;;-2.60;59.10;;;;;;4938195;28;20039;-66
2022/03/08 06:07:11;;;;;;;26.52;14.07;;;-2.60;59.10;;;;;;4939099;28;21474;-65
2022/03/08 06:09:37;;;;;;;25.70;14.35;;;-2.60;59.10;;;;;;4940069;28;20110;-66
2022/03/08 06:12:03;;;;;;;23.30;13.48;;;-2.60;59.10;;;;;;4934966;28;20064;-66
2022/03/08 06:14:29;;;;;;;24.35;13.13;;;-2.60;59.20;;;;;;4937937;28;20028;-66
2022/03/08 06:16:55;;;;;;;24.67;13.50;;;-2.60;59.20;;;;;;4939761;28;20403;-64
2022/03/08 06:19:21;;;;;;;23.63;13.32;;;-2.60;59.20;;;;;;4937609;28;20417;-65
2022/03/08 06:21:47;;;;;;;27.88;13.18;;;-2.60;59.40;;;;;;4938284;28;20328;-65
2022/03/08 06:24:13;;;;;;;23.15;13.32;;;-2.60;59.40;;;;;;4939199;28;20574;-65
2022/03/08 06:26:38;;;;;;;25.77;14.02;;;-2.60;60.00;;;;;;4939737;28;20043;-66
2022/03/08 06:29:05;;;;;;;27.38;14.63;;;-2.60;59.40;;;;;;4940492;28;20144;-65
2022/03/08 06:31:30;;;;;;;26.17;13.88;;;-2.60;59.50;;;;;;4946644;28;20039;-65
2022/03/08 06:33:56;;;;;;;22.63;13.55;;;-2.60;59.50;;;;;;4940968;28;20407;-64
2022/03/08 06:36:21;;;;;;;23.67;12.77;;;-2.60;59.70;;;;;;4944057;28;20098;-66
2022/03/08 06:38:47;;;;;;;28.67;13.98;;;-2.60;59.70;;;;;;4941734;28;20620;-63
2022/03/08 06:41:13;;;;;;;23.90;13.32;;;-2.50;59.70;;;;;;4943737;28;20527;-65
2022/03/08 06:43:41;;;;;;;27.65;13.52;;;-2.50;59.70;;;;;;4943932;28;20495;-64
2022/03/08 06:46:08;;;;;;;26.30;13.52;;;-2.50;59.80;;;;;;4941565;28;20059;-64
2022/03/08 06:48:35;;;;;;;23.85;14.00;;;-2.50;59.80;;;;;;4940136;28;20044;-64
2022/03/08 06:51:00;;;;;;;27.80;13.65;;;-2.40;59.90;;;;;;4943095;28;20058;-65
2022/03/08 06:53:26;;;;;;;26.63;12.90;;;-2.40;59.80;;;;;;4942016;28;20507;-64
2022/03/08 06:55:52;;;;;;;28.40;14.48;;;-2.40;60.00;;;;;;4942884;28;20056;-65
2022/03/08 06:58:17;;;;;;;26.20;14.27;;;-2.30;60.20;;;;;;4941106;28;20035;-66
2022/03/08 07:00:43;;;;;;;23.60;13.90;;;-2.30;60.30;;;;;;4940662;28;20079;-64
2022/03/08 07:03:08;;;;;;;22.50;13.38;;;-2.20;60.40;;;;;;4938929;28;20071;-66
2022/03/08 07:05:36;;;;;;;25.88;14.93;;;-2.20;60.60;;;;;;4942233;28;20040;-65
2022/03/08 07:08:02;;;;;;;31.27;16.45;;;-2.20;61.20;;;;;;4941599;28;20043;-65
2022/03/08 07:10:28;;;;;;;27.42;15.43;;;-2.10;62.10;;;;;;4941213;28;20039;-63
2022/03/08 07:12:53;;;;;;;24.95;15.55;;;-2.10;61.70;;;;;;4942338;28;20043;-65
2022/03/08 07:15:19;;;;;;;23.92;13.82;;;-2.10;62.10;;;;;;4943108;28;20035;-64
2022/03/08 07:17:47;;;;;;;24.80;15.27;;;-2.20;61.80;;;;;;4943683;28;20055;-65
2022/03/08 07:20:14;;;;;;;24.08;13.82;;;-2.10;62.20;;;;;;4943307;28;20031;-65
2022/03/08 07:22:39;;;;;;;25.33;13.88;;;-2.10;61.60;;;;;;4941438;28;20027;-64
2022/03/08 07:25:06;;;;;;;25.55;13.65;;;-2.00;61.50;;;;;;4941325;28;20098;-65
2022/03/08 07:27:33;;;;;;;27.67;13.98;;;-2.00;61.40;;;;;;4940024;28;20456;-65
2022/03/08 07:29:58;;;;;;;23.60;12.57;;;-1.90;61.50;;;;;;4941827;28;20392;-65
2022/03/08 07:32:24;;;;;;;22.45;12.82;;;-1.90;61.10;;;;;;4940903;28;20050;-67
2022/03/08 07:34:49;;;;;;;27.45;14.57;;;-1.70;61.10;;;;;;4942771;28;20126;-64
2022/03/08 07:37:15;;;;;;;27.10;13.93;;;-1.70;61.40;;;;;;4939199;28;20344;-65
2022/03/08 07:39:41;;;;;;;25.17;14.18;;;-1.60;61.30;;;;;;4939186;28;20035;-65
2022/03/08 07:42:07;;;;;;;23.15;13.27;;;-1.60;60.90;;;;;;4941498;28;20036;-66
2022/03/08 07:44:33;;;;;;;22.27;13.88;;;-1.40;60.90;;;;;;4941128;28;20039;-65
2022/03/08 07:46:59;;;;;;;25.30;14.05;;;-1.40;60.90;;;;;;4941306;28;20471;-64
2022/03/08 07:49:25;;;;;;;21.58;12.77;;;-1.30;60.70;;;;;;4939151;28;20127;-65
2022/03/08 07:51:51;;;;;;;24.25;13.35;;;-1.20;60.60;;;;;;4940755;28;20069;-66
2022/03/08 07:54:18;;;;;;;24.30;13.60;;;-1.10;60.40;;;;;;4940039;28;20031;-65
2022/03/08 07:56:44;;;;;;;23.88;13.55;;;-1.00;60.20;;;;;;4938905;28;20564;-64
2022/03/08 07:59:11;;;;;;;22.90;12.88;;;-1.00;60.20;;;;;;4941823;28;20035;-65
2022/03/08 08:01:36;;;;;;;21.83;12.52;;;-0.90;60.10;;;;;;4939629;28;20035;-65
2022/03/08 08:04:02;;;;;;;24.23;13.00;;;-0.80;60.20;;;;;;4941481;28;20058;-66
2022/03/08 08:06:28;;;;;;;19.48;11.82;;;-0.70;60.10;;;;;;4940489;28;20131;-65
2022/03/08 08:08:53;;;;;;;22.20;12.43;;;-0.60;60.00;;;;;;4939999;28;20480;-65
2022/03/08 08:11:20;;;;;;;23.35;12.40;;;-0.50;60.00;;;;;;4939474;28;20047;-65
2022/03/08 08:13:48;;;;;;;20.38;12.45;;;-0.40;59.90;;;;;;4940488;28;20054;-65
2022/03/08 08:16:14;;;;;;;22.33;12.60;;;-0.30;59.90;;;;;;4940072;28;20042;-65
2022/03/08 08:18:40;;;;;;;23.00;13.05;;;-0.20;59.80;;;;;;4938166;28;20042;-65
2022/03/08 08:21:05;;;;;;;22.52;12.68;;;-0.10;59.80;;;;;;4940478;28;20031;-65
2022/03/08 08:23:31;;;;;;;17.98;11.93;;;0.00;59.80;;;;;;4943733;28;20506;-63
2022/03/08 08:25:57;;;;;;;17.83;12.07;;;0.10;59.70;;;;;;4939176;28;20042;-62
2022/03/08 08:28:23;;;;;;;17.88;11.23;;;0.20;59.60;;;;;;4941010;28;20032;-65
2022/03/08 08:30:48;;;;;;;19.90;12.07;;;0.40;59.50;;;;;;4939856;28;20074;-65
2022/03/08 08:33:14;;;;;;;17.67;11.73;;;0.50;59.40;;;;;;4941126;28;20042;-65
2022/03/08 08:35:40;;;;;;;19.42;11.52;;;0.60;59.20;;;;;;4942271;28;20039;-65
2022/03/08 08:38:06;;;;;;;18.92;11.88;;;0.70;59.20;;;;;;4940606;28;20036;-64
2022/03/08 08:40:34;;;;;;;21.02;11.93;;;0.80;59.20;;;;;;4938465;28;20054;-64
2022/03/08 08:43:00;;;;;;;20.80;11.52;;;0.90;59.10;;;;;;4940432;28;20039;-65
2022/03/08 08:45:26;;;;;;;17.95;11.52;;;0.90;59.00;;;;;;4939243;28;20098;-65
2022/03/08 08:47:52;;;;;;;19.70;11.68;;;1.00;59.00;;;;;;4940470;28;20086;-65
2022/03/08 08:50:18;;;;;;;15.57;10.35;;;1.20;58.90;;;;;;4937580;28;20578;-65
2022/03/08 08:52:44;;;;;;;19.85;12.45;;;1.30;58.80;;;;;;4940490;28;20660;-65
2022/03/08 08:55:10;;;;;;;17.85;11.50;;;1.40;58.80;;;;;;4940917;28;20491;-65
2022/03/08 08:57:36;;;;;;;17.02;11.23;;;1.50;58.60;;;;;;4939942;28;20040;-65
2022/03/08 09:00:02;;;;;;;17.10;10.68;;;1.60;58.50;;;;;;4938115;28;20027;-65
2022/03/08 09:02:28;;;;;;;15.68;10.55;;;1.70;58.40;;;;;;4935397;28;20033;-64
2022/03/08 09:04:53;;;;;;;17.05;11.13;;;1.80;58.40;;;;;;4937437;28;20036;-66
2022/03/08 09:07:19;;;;;;;19.13;10.65;;;1.90;58.40;;;;;;4939636;28;20502;-65
2022/03/08 09:09:47;;;;;;;18.00;10.52;;;2.00;58.30;;;;;;4939936;28;20139;-65
2022/03/08 09:12:13;;;;;;;15.07;9.88;;;2.10;58.10;;;;;;4938743;28;20039;-65
2022/03/08 09:14:39;;;;;;;13.45;8.80;;;2.20;58.10;;;;;;4938462;28;20118;-65
2022/03/08 09:17:04;;;;;;;13.95;8.77;;;2.30;58.10;;;;;;4938786;28;20122;-64
2022/03/08 09:19:30;;;;;;;12.80;8.60;;;2.50;57.90;;;;;;4940957;28;20046;-65
2022/03/08 09:21:56;;;;;;;12.20;8.43;;;2.50;57.70;;;;;;4941212;28;20085;-64
2022/03/08 09:24:21;;;;;;;13.57;7.80;;;2.70;57.60;;;;;;4941668;28;20047;-65
2022/03/08 09:26:47;;;;;;;11.02;7.70;;;2.80;57.40;;;;;;4941150;28;20117;-64
2022/03/08 09:29:13;;;;;;;11.77;7.78;;;2.90;57.30;;;;;;4938514;28;20046;-64
2022/03/08 09:31:38;;;;;;;11.23;7.55;;;3.00;57.10;;;;;;4941189;28;20039;-65
2022/03/08 09:34:04;;;;;;;13.30;8.43;;;3.10;56.90;;;;;;4941153;28;20276;-64
2022/03/08 09:36:30;;;;;;;11.65;7.82;;;3.30;56.90;;;;;;4939287;28;20095;-64
2022/03/08 09:38:55;;;;;;;10.43;7.35;;;3.40;56.50;;;;;;4940117;28;20043;-65
2022/03/08 09:41:22;;;;;;;10.20;7.43;;;3.50;56.40;;;;;;4939769;28;20043;-65
2022/03/08 09:43:48;;;;;;;9.13;6.82;;;3.60;56.10;;;;;;4938586;28;20561;-64
2022/03/08 09:46:13;;;;;;;9.98;6.93;;;3.70;55.90;;;;;;4938602;28;20156;-65
2022/03/08 09:48:39;;;;;;;10.63;6.68;;;3.80;55.70;;;;;;4939456;28;20031;-63
2022/03/08 09:51:05;;;;;;;9.07;6.82;;;3.90;55.40;;;;;;4940722;28;20050;-65
2022/03/08 09:53:31;;;;;;;9.95;6.90;;;4.00;55.20;;;;;;4939275;28;20681;-64
2022/03/08 09:56:02;;;;;;;10.13;6.90;;;4.00;54.80;;;;;;4938519;28;20043;-65
2022/03/08 09:58:28;;;;;;;12.77;6.40;;;4.10;54.60;;;;;;4939102;28;20039;-64
2022/03/08 10:00:55;;;;;;;9.70;6.85;;;4.20;54.50;;;;;;4940291;28;20035;-65
2022/03/08 10:03:39;;;;;;;10.23;7.13;;;4.30;54.30;;;;;;4942498;28;20039;-65
2022/03/08 10:06:06;;;;;;;10.55;6.70;;;4.30;53.50;;;;;;4941507;28;20847;-66
2022/03/08 10:08:32;;;;;;;14.32;7.07;;;4.40;53.90;;;;;;4943852;28;20039;-63
2022/03/08 10:11:11;;;;;;;12.38;7.15;;;4.40;53.70;;;;;;4944372;28;20047;-65
2022/03/08 10:13:42;;;;;;;9.25;6.82;;;4.40;53.70;;;;;;4943669;28;20039;-65
2022/03/08 10:16:24;;;;;;;10.93;7.32;;;4.50;53.50;;;;;;4944060;28;20267;-65
2022/03/08 10:18:52;;;;;;;11.00;7.35;;;4.60;53.10;;;;;;4927622;28;20296;-65
2022/03/08 10:21:36;;;;;;;13.77;7.95;;;4.60;53.00;;;;;;4943216;28;20399;-64
2022/03/08 10:24:25;;;;;;;13.43;7.60;;;4.70;52.50;;;;;;4944833;28;20171;-66
2022/03/08 10:27:16;;;;;;;11.55;7.82;;;4.80;52.50;;;;;;4941317;28;20043;-65
2022/03/08 10:29:42;;;;;;;12.32;7.63;;;4.80;52.60;;;;;;4942739;28;20148;-65
2022/03/08 10:32:16;;;;;;;23.52;7.70;;;4.80;52.90;;;;;;4944376;28;20074;-65
2022/03/08 10:34:43;;;;;;;19.60;7.45;;;4.90;52.80;;;;;;4945064;28;20384;-64
2022/03/08 10:37:14;;;;;;;11.23;7.93;;;4.90;52.60;;;;;;4945277;28;20042;-66
2022/03/08 10:39:56;;;;;;;11.30;7.80;;;5.00;52.40;;;;;;4939559;28;20062;-65
2022/03/08 10:42:25;;;;;;;11.32;7.93;;;5.00;51.90;;;;;;4957986;28;20126;-64
2022/03/08 10:44:59;;;;;;;11.27;7.88;;;5.10;52.20;;;;;;4943188;28;20063;-65
2022/03/08 10:47:25;;;;;;;12.43;8.30;;;5.10;52.10;;;;;;4942000;28;20032;-66
2022/03/08 10:49:57;;;;;;;12.15;8.57;;;5.10;52.00;;;;;;4941734;28;20392;-64
2022/03/08 10:52:31;;;;;;;14.45;8.45;;;5.10;51.90;;;;;;4943305;28;20130;-64
2022/03/08 10:55:20;;;;;;;13.68;8.23;;;5.10;51.80;;;;;;4942343;28;20043;-65
2022/03/08 10:57:53;;;;;;;11.40;7.70;;;5.20;51.70;;;;;;4941497;28;20047;-65
2022/03/08 11:00:23;;;;;;;10.65;7.55;;;5.20;52.20;;;;;;4940660;28;20540;-65
2022/03/08 11:03:09;;;;;;;10.15;7.43;;;5.30;52.20;;;;;;4942547;28;20521;-63
2022/03/08 11:05:36;;;;;;;10.43;7.43;;;5.40;51.70;;;;;;4942072;28;20044;-66
2022/03/08 11:08:02;;;;;;;10.98;7.60;;;5.40;52.10;;;;;;4940989;28;20061;-65
2022/03/08 11:10:29;;;;;;;10.32;7.00;;;5.50;51.90;;;;;;4943820;28;20383;-64
2022/03/08 11:12:56;;;;;;;11.70;7.70;;;5.60;51.80;;;;;;4940415;28;20027;-65
2022/03/08 11:15:22;;;;;;;10.23;7.20;;;5.70;51.40;;;;;;4939633;28;20138;-64
2022/03/08 11:17:52;;;;;;;10.95;7.45;;;5.70;51.50;;;;;;4940374;28;20383;-64
2022/03/08 11:20:19;;;;;;;8.35;6.63;;;5.80;51.40;;;;;;4941681;28;20118;-66
2022/03/08 11:22:47;;;;;;;8.52;6.72;;;5.90;51.20;;;;;;4940772;28;20059;-65
2022/03/08 11:25:16;;;;;;;11.13;6.47;;;6.00;50.90;;;;;;4939917;28;20058;-65
2022/03/08 11:27:44;;;;;;;8.52;6.18;;;6.10;50.60;;;;;;4938998;28;20507;-66
2022/03/08 11:30:13;;;;;;;10.13;6.80;;;6.20;50.30;;;;;;4938982;28;20028;-65
2022/03/08 11:32:42;;;;;;;9.63;6.88;;;6.30;50.00;;;;;;4938896;28;20082;-65
2022/03/08 11:35:08;;;;;;;8.73;6.10;;;6.40;49.70;;;;;;4939906;28;20154;-66
2022/03/08 11:37:37;;;;;;;9.10;7.13;;;6.50;49.70;;;;;;4939835;28;20138;-65
2022/03/08 11:40:14;;;;;;;8.43;6.60;;;6.50;49.50;;;;;;4948058;28;20031;-66
2022/03/08 11:42:45;;;;;;;9.25;6.78;;;6.60;49.00;;;;;;4942321;28;20123;-66
2022/03/08 11:45:12;;;;;;;9.32;6.70;;;6.70;49.30;;;;;;4940115;28;20046;-65
2022/03/08 11:47:42;;;;;;;12.07;7.47;;;6.80;49.00;;;;;;4940510;28;20032;-66
2022/03/08 11:50:39;;;;;;;8.77;6.95;;;6.80;48.80;;;;;;4939011;28;20039;-66
2022/03/08 11:53:18;;;;;;;12.30;7.20;;;6.90;48.20;;;;;;4939891;28;20036;-65
2022/03/08 11:55:43;;;;;;;9.63;6.88;;;7.00;48.50;;;;;;4942209;28;20035;-66
2022/03/08 11:58:10;;;;;;;12.98;7.82;;;7.00;48.70;;;;;;4941504;28;20035;-65
2022/03/08 12:00:39;;;;;;;10.40;7.85;;;7.10;48.60;;;;;;4938913;28;20059;-65
2022/03/08 12:03:18;;;;;;;11.90;7.90;;;7.10;48.50;;;;;;4939289;28;20443;-66
2022/03/08 12:05:48;;;;;;;11.95;8.02;;;7.10;47.70;;;;;;4943301;28;20039;-65
2022/03/08 12:08:29;;;;;;;10.35;7.63;;;7.10;48.10;;;;;;4940589;28;20047;-65
2022/03/08 12:10:58;;;;;;;12.18;8.43;;;7.20;47.80;;;;;;4937606;28;20417;-65
2022/03/08 12:13:27;;;;;;;10.65;8.10;;;7.20;48.30;;;;;;4946651;28;20027;-65
2022/03/08 12:16:08;;;;;;;12.40;7.75;;;7.30;47.90;;;;;;4940339;28;20091;-66
2022/03/08 12:18:41;;;;;;;9.52;7.68;;;7.30;47.60;;;;;;4941871;28;20042;-65
2022/03/08 12:21:15;;;;;;;10.45;7.85;;;7.40;47.90;;;;;;4939593;28;20032;-66
2022/03/08 12:23:50;;;;;;;11.95;7.57;;;7.40;47.50;;;;;;4941136;28;20667;-65
2022/03/08 12:26:24;;;;;;;12.13;8.05;;;7.40;47.20;;;;;;4936908;28;20366;-65
2022/03/08 12:29:16;;;;;;;10.30;7.75;;;7.40;47.10;;;;;;4938479;28;20513;-65
2022/03/08 12:31:57;;;;;;;11.60;7.70;;;7.40;46.70;;;;;;4938867;28;20043;-66
2022/03/08 12:34:39;;;;;;;;;;;;;;;;;;;;;
2022/03/08 12:37:10;;;;;;;13.70;7.70;;;7.50;46.80;;;;;;4938454;28;20635;-66